sensor_id;sensor_type;location;lat;lon;timestamp;pressure;altitude;pressure_sealevel;temperature;humidity
70407;BME280;57821;52.202;0.154;2023-06-04T00:00:07;102486.03;;;11.89;72.13
70407;BME280;57821;52.202;0.154;2023-06-04T00:02:34;102482.53;;;11.87;72.01
70407;BME280;57821;52.202;0.154;2023-06-04T00:05:01;102475.50;;;11.83;72.52
70407;BME280;57821;52.202;0.154;2023-06-04T00:07:28;102475.47;;;11.80;72.64
70407;BME280;57821;52.202;0.154;2023-06-04T00:09:54;102479.72;;;11.77;72.88
70407;BME280;57821;52.202;0.154;2023-06-04T00:12:21;102479.72;;;11.75;72.80
70407;BME280;57821;52.202;0.154;2023-06-04T00:14:48;102482.16;;;11.71;72.42
70407;BME280;57821;52.202;0.154;2023-06-04T00:17:14;102480.38;;;11.67;73.39
70407;BME280;57821;52.202;0.154;2023-06-04T00:19:41;102486.34;;;11.63;73.31
70407;BME280;57821;52.202;0.154;2023-06-04T00:22:08;102489.75;;;11.59;73.33
70407;BME280;57821;52.202;0.154;2023-06-04T00:24:37;102491.44;;;11.57;73.00
70407;BME280;57821;52.202;0.154;2023-06-04T00:27:04;102494.84;;;11.54;73.16
70407;BME280;57821;52.202;0.154;2023-06-04T00:29:31;102485.25;;;11.50;73.22
70407;BME280;57821;52.202;0.154;2023-06-04T00:31:58;102489.50;;;11.46;73.41
70407;BME280;57821;52.202;0.154;2023-06-04T00:34:24;102480.75;;;11.43;72.88
70407;BME280;57821;52.202;0.154;2023-06-04T00:36:51;102486.78;;;11.40;73.50
70407;BME280;57821;52.202;0.154;2023-06-04T00:39:17;102479.75;;;11.36;73.69
70407;BME280;57821;52.202;0.154;2023-06-04T00:41:44;102484.06;;;11.34;73.94
70407;BME280;57821;52.202;0.154;2023-06-04T00:44:11;102491.75;;;11.30;74.10
70407;BME280;57821;52.202;0.154;2023-06-04T00:46:37;102489.03;;;11.25;74.22
70407;BME280;57821;52.202;0.154;2023-06-04T00:49:05;102485.53;;;11.22;73.77
70407;BME280;57821;52.202;0.154;2023-06-04T00:51:32;102494.09;;;11.19;74.34
70407;BME280;57821;52.202;0.154;2023-06-04T00:53:59;102487.16;;;11.17;73.95
70407;BME280;57821;52.202;0.154;2023-06-04T00:56:26;102484.47;;;11.12;73.88
70407;BME280;57821;52.202;0.154;2023-06-04T00:58:52;102488.72;;;11.10;74.40
70407;BME280;57821;52.202;0.154;2023-06-04T01:01:33;102493.00;;;11.08;74.40
70407;BME280;57821;52.202;0.154;2023-06-04T01:04:02;102485.91;;;10.99;74.48
70407;BME280;57821;52.202;0.154;2023-06-04T01:06:43;102492.88;;;11.00;74.95
70407;BME280;57821;52.202;0.154;2023-06-04T01:09:10;102486.72;;;10.97;74.77
70407;BME280;57821;52.202;0.154;2023-06-04T01:11:38;102485.78;;;10.93;74.14
70407;BME280;57821;52.202;0.154;2023-06-04T01:14:07;102489.16;;;10.91;74.37
70407;BME280;57821;52.202;0.154;2023-06-04T01:21:55;102492.41;;;10.81;75.02
70407;BME280;57821;52.202;0.154;2023-06-04T01:24:28;102492.34;;;10.79;74.50
70407;BME280;57821;52.202;0.154;2023-06-04T01:26:54;102496.66;;;10.77;74.82
70407;BME280;57821;52.202;0.154;2023-06-04T01:29:22;102496.63;;;10.76;74.73
70407;BME280;57821;52.202;0.154;2023-06-04T01:31:52;102491.34;;;10.73;75.44
70407;BME280;57821;52.202;0.154;2023-06-04T01:34:20;102488.72;;;10.71;74.94
70407;BME280;57821;52.202;0.154;2023-06-04T01:36:47;102489.53;;;10.68;75.79
70407;BME280;57821;52.202;0.154;2023-06-04T01:39:13;102483.41;;;10.66;75.60
70407;BME280;57821;52.202;0.154;2023-06-04T01:41:40;102486.00;;;10.65;75.92
70407;BME280;57821;52.202;0.154;2023-06-04T01:44:06;102488.53;;;10.63;76.25
70407;BME280;57821;52.202;0.154;2023-06-04T01:46:33;102492.81;;;10.61;76.45
70407;BME280;57821;52.202;0.154;2023-06-04T01:49:00;102485.84;;;10.59;76.42
70407;BME280;57821;52.202;0.154;2023-06-04T01:51:27;102495.34;;;10.58;76.71
70407;BME280;57821;52.202;0.154;2023-06-04T01:53:54;102489.22;;;10.56;76.50
70407;BME280;57821;52.202;0.154;2023-06-04T01:56:20;102490.91;;;10.54;76.77
70407;BME280;57821;52.202;0.154;2023-06-04T01:58:47;102488.28;;;10.53;76.73
70407;BME280;57821;52.202;0.154;2023-06-04T02:01:13;102494.28;;;10.50;76.65
70407;BME280;57821;52.202;0.154;2023-06-04T02:03:40;102490.78;;;10.48;76.56
70407;BME280;57821;52.202;0.154;2023-06-04T02:06:07;102491.56;;;10.46;76.72
70407;BME280;57821;52.202;0.154;2023-06-04T02:08:34;102488.94;;;10.44;76.52
70407;BME280;57821;52.202;0.154;2023-06-04T02:11:01;102492.31;;;10.40;76.85
70407;BME280;57821;52.202;0.154;2023-06-04T02:13:28;102492.22;;;10.37;76.99
70407;BME280;57821;52.202;0.154;2023-06-04T02:15:54;102498.16;;;10.33;77.26
70407;BME280;57821;52.202;0.154;2023-06-04T02:18:21;102493.75;;;10.29;77.09
70407;BME280;57821;52.202;0.154;2023-06-04T02:20:48;102491.00;;;10.23;77.16
70407;BME280;57821;52.202;0.154;2023-06-04T02:23:17;102491.84;;;10.22;77.39
70407;BME280;57821;52.202;0.154;2023-06-04T02:25:45;102498.69;;;10.20;77.31
70407;BME280;57821;52.202;0.154;2023-06-04T02:28:12;102497.75;;;10.16;77.07
70407;BME280;57821;52.202;0.154;2023-06-04T02:30:39;102497.63;;;10.13;76.94
70407;BME280;57821;52.202;0.154;2023-06-04T02:33:06;102493.25;;;10.11;77.16
70407;BME280;57821;52.202;0.154;2023-06-04T02:35:33;102489.72;;;10.07;76.65
70407;BME280;57821;52.202;0.154;2023-06-04T02:37:59;102493.09;;;10.05;77.14
70407;BME280;57821;52.202;0.154;2023-06-04T02:40:27;102495.59;;;10.02;77.43
70407;BME280;57821;52.202;0.154;2023-06-04T02:42:54;102490.34;;;9.99;76.94
70407;BME280;57821;52.202;0.154;2023-06-04T02:45:22;102490.22;;;9.94;77.01
70407;BME280;57821;52.202;0.154;2023-06-04T02:47:49;102493.59;;;9.92;76.79
70407;BME280;57821;52.202;0.154;2023-06-04T02:50:16;102493.50;;;9.87;76.92
70407;BME280;57821;52.202;0.154;2023-06-04T02:52:43;102490.03;;;9.86;76.99
70407;BME280;57821;52.202;0.154;2023-06-04T02:55:10;102486.47;;;9.83;77.40
70407;BME280;57821;52.202;0.154;2023-06-04T02:57:39;102482.91;;;9.79;77.79
70407;BME280;57821;52.202;0.154;2023-06-04T03:00:07;102485.50;;;9.79;77.60
70407;BME280;57821;52.202;0.154;2023-06-04T03:02:35;102488.06;;;9.78;77.76
70407;BME280;57821;52.202;0.154;2023-06-04T03:05:02;102488.84;;;9.75;78.01
70407;BME280;57821;52.202;0.154;2023-06-04T03:07:28;102489.69;;;9.74;78.37
70407;BME280;57821;52.202;0.154;2023-06-04T03:09:55;102487.03;;;9.71;78.25
70407;BME280;57821;52.202;0.154;2023-06-04T03:12:21;102488.69;;;9.69;78.23
70407;BME280;57821;52.202;0.154;2023-06-04T03:14:48;102480.03;;;9.69;78.05
70407;BME280;57821;52.202;0.154;2023-06-04T03:17:15;102480.84;;;9.66;78.07
70407;BME280;57821;52.202;0.154;2023-06-04T03:19:41;102479.03;;;9.64;78.08
70407;BME280;57821;52.202;0.154;2023-06-04T03:22:08;102483.34;;;9.63;78.75
70407;BME280;57821;52.202;0.154;2023-06-04T03:24:37;102476.38;;;9.61;78.70
70407;BME280;57821;52.202;0.154;2023-06-04T03:27:05;102488.44;;;9.60;78.80
70407;BME280;57821;52.202;0.154;2023-06-04T03:29:35;102477.16;;;9.58;78.40
70407;BME280;57821;52.202;0.154;2023-06-04T03:32:04;102482.28;;;9.57;78.68
70407;BME280;57821;52.202;0.154;2023-06-04T03:34:31;102479.66;;;9.55;78.83
70407;BME280;57821;52.202;0.154;2023-06-04T03:37:01;102484.81;;;9.55;78.98
70407;BME280;57821;52.202;0.154;2023-06-04T03:39:27;102487.41;;;9.54;79.17
70407;BME280;57821;52.202;0.154;2023-06-04T03:41:55;102479.50;;;9.49;79.34
70407;BME280;57821;52.202;0.154;2023-06-04T03:44:23;102482.13;;;9.51;79.18
70407;BME280;57821;52.202;0.154;2023-06-04T03:46:50;102484.69;;;9.49;79.07
70407;BME280;57821;52.202;0.154;2023-06-04T03:49:17;102487.28;;;9.49;79.08
70407;BME280;57821;52.202;0.154;2023-06-04T03:51:45;102488.09;;;9.48;79.23
70407;BME280;57821;52.202;0.154;2023-06-04T03:54:12;102487.22;;;9.47;79.36
70407;BME280;57821;52.202;0.154;2023-06-04T03:56:40;102484.59;;;9.46;79.23
70407;BME280;57821;52.202;0.154;2023-06-04T03:59:08;102492.31;;;9.44;78.77
70407;BME280;57821;52.202;0.154;2023-06-04T04:01:35;102487.94;;;9.42;79.29
70407;BME280;57821;52.202;0.154;2023-06-04T04:04:01;102487.94;;;9.42;79.11
70407;BME280;57821;52.202;0.154;2023-06-04T04:06:28;102487.06;;;9.41;79.20
70407;BME280;57821;52.202;0.154;2023-06-04T04:08:55;102486.16;;;9.41;79.04
70407;BME280;57821;52.202;0.154;2023-06-04T04:11:22;102488.75;;;9.41;79.30
70407;BME280;57821;52.202;0.154;2023-06-04T04:13:49;102499.16;;;9.42;79.47
70407;BME280;57821;52.202;0.154;2023-06-04T04:16:17;102491.34;;;9.41;79.17
70407;BME280;57821;52.202;0.154;2023-06-04T04:18:44;102494.81;;;9.41;79.38
70407;BME280;57821;52.202;0.154;2023-06-04T04:21:11;102489.63;;;9.41;80.13
70407;BME280;57821;52.202;0.154;2023-06-04T04:23:39;102488.81;;;9.42;79.95
70407;BME280;57821;52.202;0.154;2023-06-04T04:26:07;102492.28;;;9.43;79.91
70407;BME280;57821;52.202;0.154;2023-06-04T04:28:34;102487.94;;;9.42;79.13
70407;BME280;57821;52.202;0.154;2023-06-04T04:31:01;102493.19;;;9.45;79.42
70407;BME280;57821;52.202;0.154;2023-06-04T04:33:31;102484.59;;;9.46;79.45
70407;BME280;57821;52.202;0.154;2023-06-04T04:35:59;102485.47;;;9.46;80.14
70407;BME280;57821;52.202;0.154;2023-06-04T04:38:26;102491.56;;;9.48;79.47
70407;BME280;57821;52.202;0.154;2023-06-04T04:40:59;102487.28;;;9.49;79.47
70407;BME280;57821;52.202;0.154;2023-06-04T04:43:31;102472.53;;;9.46;80.06
70407;BME280;57821;52.202;0.154;2023-06-04T04:46:02;102482.16;;;9.52;79.59
70407;BME280;57821;52.202;0.154;2023-06-04T04:48:30;102480.47;;;9.53;80.14
70407;BME280;57821;52.202;0.154;2023-06-04T04:50:57;102480.56;;;9.57;79.91
70407;BME280;57821;52.202;0.154;2023-06-04T04:53:26;102480.53;;;9.56;80.18
70407;BME280;57821;52.202;0.154;2023-06-04T04:55:53;102487.59;;;9.61;80.20
70407;BME280;57821;52.202;0.154;2023-06-04T04:58:20;102490.28;;;9.64;80.14
70407;BME280;57821;52.202;0.154;2023-06-04T05:00:47;102496.38;;;9.66;80.23
70407;BME280;57821;52.202;0.154;2023-06-04T05:03:14;102487.84;;;9.70;80.11
70407;BME280;57821;52.202;0.154;2023-06-04T05:05:42;102497.50;;;9.76;79.81
70407;BME280;57821;52.202;0.154;2023-06-04T05:08:09;102497.63;;;9.80;80.19
70407;BME280;57821;52.202;0.154;2023-06-04T05:10:39;102497.75;;;9.85;80.16
70407;BME280;57821;52.202;0.154;2023-06-04T05:13:07;102501.31;;;9.88;80.38
70407;BME280;57821;52.202;0.154;2023-06-04T05:15:43;102497.94;;;9.93;80.35
70407;BME280;57821;52.202;0.154;2023-06-04T05:18:12;102498.13;;;9.99;80.30
70407;BME280;57821;52.202;0.154;2023-06-04T05:20:39;102500.88;;;10.05;80.16
70407;BME280;57821;52.202;0.154;2023-06-04T05:23:09;102500.09;;;10.09;80.77
70407;BME280;57821;52.202;0.154;2023-06-04T05:25:36;102508.91;;;10.15;80.67
70407;BME280;57821;52.202;0.154;2023-06-04T05:28:03;102509.06;;;10.20;80.22
70407;BME280;57821;52.202;0.154;2023-06-04T05:30:30;102509.22;;;10.26;80.94
70407;BME280;57821;52.202;0.154;2023-06-04T05:32:57;102501.59;;;10.32;80.98
70407;BME280;57821;52.202;0.154;2023-06-04T05:35:25;102509.56;;;10.40;81.06
70407;BME280;57821;52.202;0.154;2023-06-04T05:37:52;102509.78;;;10.47;80.55
70407;BME280;57821;52.202;0.154;2023-06-04T05:40:21;102501.22;;;10.51;80.85
70407;BME280;57821;52.202;0.154;2023-06-04T05:42:48;102511.75;;;10.57;80.69
70407;BME280;57821;52.202;0.154;2023-06-04T05:45:15;102510.13;;;10.62;80.39
70407;BME280;57821;52.202;0.154;2023-06-04T05:47:43;102506.75;;;10.66;80.53
70407;BME280;57821;52.202;0.154;2023-06-04T05:50:10;102511.19;;;10.70;80.22
70407;BME280;57821;52.202;0.154;2023-06-04T05:52:38;102510.41;;;10.75;80.35
70407;BME280;57821;52.202;0.154;2023-06-04T05:55:08;102502.69;;;10.78;80.25
70407;BME280;57821;52.202;0.154;2023-06-04T05:57:36;102504.59;;;10.83;79.58
70407;BME280;57821;52.202;0.154;2023-06-04T06:00:04;102506.41;;;10.87;80.18
70407;BME280;57821;52.202;0.154;2023-06-04T06:02:39;102503.06;;;10.93;79.91
70407;BME280;57821;52.202;0.154;2023-06-04T06:05:15;102502.28;;;10.97;80.23
70407;BME280;57821;52.202;0.154;2023-06-04T06:07:42;102508.44;;;11.02;80.17
70407;BME280;57821;52.202;0.154;2023-06-04T06:10:08;102501.63;;;11.05;80.50
70407;BME280;57821;52.202;0.154;2023-06-04T06:12:35;102506.91;;;11.10;79.96
70407;BME280;57821;52.202;0.154;2023-06-04T06:15:02;102510.50;;;11.17;80.34
70407;BME280;57821;52.202;0.154;2023-06-04T06:17:29;102509.78;;;11.22;80.30
70407;BME280;57821;52.202;0.154;2023-06-04T06:19:56;102518.56;;;11.30;80.48
70407;BME280;57821;52.202;0.154;2023-06-04T06:22:22;102510.97;;;11.38;80.27
70407;BME280;57821;52.202;0.154;2023-06-04T06:24:49;102512.00;;;11.46;80.76
70407;BME280;57821;52.202;0.154;2023-06-04T06:27:17;102510.41;;;11.54;80.88
70407;BME280;57821;52.202;0.154;2023-06-04T06:29:44;102515.84;;;11.65;80.60
70407;BME280;57821;52.202;0.154;2023-06-04T06:32:11;102511.66;;;11.73;80.21
70407;BME280;57821;52.202;0.154;2023-06-04T06:34:37;102514.50;;;11.82;80.53
70407;BME280;57821;52.202;0.154;2023-06-04T06:37:05;102518.94;;;11.89;80.36
70407;BME280;57821;52.202;0.154;2023-06-04T06:39:32;102506.13;;;11.98;80.64
70407;BME280;57821;52.202;0.154;2023-06-04T06:41:59;102513.22;;;12.08;80.71
70407;BME280;57821;52.202;0.154;2023-06-04T06:44:32;102510.84;;;12.20;80.57
70407;BME280;57821;52.202;0.154;2023-06-04T06:46:58;102516.22;;;12.31;79.91
70407;BME280;57821;52.202;0.154;2023-06-04T06:49:25;102512.06;;;12.42;80.45
70407;BME280;57821;52.202;0.154;2023-06-04T06:51:51;102512.31;;;12.56;80.24
70407;BME280;57821;52.202;0.154;2023-06-04T06:54:18;102522.94;;;12.71;79.68
70407;BME280;57821;52.202;0.154;2023-06-04T06:56:45;102517.91;;;12.80;79.16
70407;BME280;57821;52.202;0.154;2023-06-04T06:59:11;102512.03;;;12.95;79.69
70407;BME280;57821;52.202;0.154;2023-06-04T07:01:38;102520.88;;;13.04;78.61
70407;BME280;57821;52.202;0.154;2023-06-04T07:04:04;102514.88;;;13.11;78.46
70407;BME280;57821;52.202;0.154;2023-06-04T07:06:31;102521.22;;;13.29;78.37
70407;BME280;57821;52.202;0.154;2023-06-04T07:08:57;102525.72;;;13.39;77.98
70407;BME280;57821;52.202;0.154;2023-06-04T07:11:24;102529.31;;;13.50;78.01
70407;BME280;57821;52.202;0.154;2023-06-04T07:13:51;102523.38;;;13.62;77.35
70407;BME280;57821;52.202;0.154;2023-06-04T07:16:17;102527.03;;;13.77;77.57
70407;BME280;57821;52.202;0.154;2023-06-04T07:18:47;102535.00;;;13.91;77.27
70407;BME280;57821;52.202;0.154;2023-06-04T07:21:14;102535.13;;;14.05;76.16
70407;BME280;57821;52.202;0.154;2023-06-04T07:23:40;102535.25;;;14.17;75.67
70407;BME280;57821;52.202;0.154;2023-06-04T07:26:07;102529.25;;;14.24;74.66
70407;BME280;57821;52.202;0.154;2023-06-04T07:28:34;102529.31;;;14.30;75.20
70407;BME280;57821;52.202;0.154;2023-06-04T07:31:01;102538.97;;;14.37;74.34
70407;BME280;57821;52.202;0.154;2023-06-04T07:33:27;102536.34;;;14.38;73.96
70407;BME280;57821;52.202;0.154;2023-06-04T07:35:54;102532.94;;;14.43;74.13
70407;BME280;57821;52.202;0.154;2023-06-04T07:38:21;102533.88;;;14.52;73.71
70407;BME280;57821;52.202;0.154;2023-06-04T07:40:48;102533.03;;;14.58;73.32
70407;BME280;57821;52.202;0.154;2023-06-04T07:43:14;102530.50;;;14.68;72.98
70407;BME280;57821;52.202;0.154;2023-06-04T07:45:41;102522.75;;;14.77;72.75
70407;BME280;57821;52.202;0.154;2023-06-04T07:48:10;102525.41;;;14.87;72.46
70407;BME280;57821;52.202;0.154;2023-06-04T07:50:37;102522.88;;;14.97;72.28
70407;BME280;57821;52.202;0.154;2023-06-04T07:53:06;102522.94;;;15.06;72.29
70407;BME280;57821;52.202;0.154;2023-06-04T07:55:33;102523.84;;;15.16;71.71
70407;BME280;57821;52.202;0.154;2023-06-04T07:58:00;102522.16;;;15.27;70.85
70407;BME280;57821;52.202;0.154;2023-06-04T08:00:27;102525.72;;;15.37;70.57
70407;BME280;57821;52.202;0.154;2023-06-04T08:02:54;102522.28;;;15.48;71.08
70407;BME280;57821;52.202;0.154;2023-06-04T08:05:20;102519.75;;;15.59;70.25
70407;BME280;57821;52.202;0.154;2023-06-04T08:07:47;102522.38;;;15.67;69.49
70407;BME280;57821;52.202;0.154;2023-06-04T08:10:14;102523.28;;;15.78;69.43
70407;BME280;57821;52.202;0.154;2023-06-04T08:12:40;102519.81;;;15.85;68.83
70407;BME280;57821;52.202;0.154;2023-06-04T08:15:07;102523.31;;;15.96;68.60
70407;BME280;57821;52.202;0.154;2023-06-04T08:17:34;102524.22;;;16.04;68.04
70407;BME280;57821;52.202;0.154;2023-06-04T08:20:01;102526.81;;;16.09;67.95
70407;BME280;57821;52.202;0.154;2023-06-04T08:22:27;102531.22;;;16.17;67.68
70407;BME280;57821;52.202;0.154;2023-06-04T08:24:54;102520.75;;;16.25;67.40
70407;BME280;57821;52.202;0.154;2023-06-04T08:27:20;102526.84;;;16.37;67.14
70407;BME280;57821;52.202;0.154;2023-06-04T08:29:47;102528.63;;;16.46;66.84
70407;BME280;57821;52.202;0.154;2023-06-04T08:32:14;102529.47;;;16.56;66.08
70407;BME280;57821;52.202;0.154;2023-06-04T08:34:40;102520.78;;;16.63;65.96
70407;BME280;57821;52.202;0.154;2023-06-04T08:37:07;102519.88;;;16.73;66.02
70407;BME280;57821;52.202;0.154;2023-06-04T08:39:33;102524.25;;;16.84;65.65
70407;BME280;57821;52.202;0.154;2023-06-04T08:42:01;102527.72;;;16.94;65.23
70407;BME280;57821;52.202;0.154;2023-06-04T08:44:30;102527.72;;;17.06;64.20
70407;BME280;57821;52.202;0.154;2023-06-04T08:47:05;102527.66;;;17.15;62.60
70407;BME280;57821;52.202;0.154;2023-06-04T08:49:34;102523.28;;;17.20;63.46
70407;BME280;57821;52.202;0.154;2023-06-04T08:52:02;102525.88;;;17.33;62.67
70407;BME280;57821;52.202;0.154;2023-06-04T08:54:29;102520.59;;;17.40;62.27
70407;BME280;57821;52.202;0.154;2023-06-04T08:56:56;102526.66;;;17.51;61.46
70407;BME280;57821;52.202;0.154;2023-06-04T08:59:23;102517.03;;;17.61;61.05
70407;BME280;57821;52.202;0.154;2023-06-04T09:01:53;102525.72;;;17.72;60.16
70407;BME280;57821;52.202;0.154;2023-06-04T09:04:21;102527.41;;;17.84;59.57
70407;BME280;57821;52.202;0.154;2023-06-04T09:06:48;102528.19;;;17.95;59.81
70407;BME280;57821;52.202;0.154;2023-06-04T09:09:15;102518.53;;;18.04;59.46
70407;BME280;57821;52.202;0.154;2023-06-04T09:11:54;102525.41;;;18.21;58.79
70407;BME280;57821;52.202;0.154;2023-06-04T09:14:21;102516.56;;;18.34;58.32
70407;BME280;57821;52.202;0.154;2023-06-04T09:16:49;102516.47;;;18.43;58.25
70407;BME280;57821;52.202;0.154;2023-06-04T09:19:17;102522.50;;;18.54;58.34
70407;BME280;57821;52.202;0.154;2023-06-04T09:21:52;102528.56;;;18.65;58.06
70407;BME280;57821;52.202;0.154;2023-06-04T09:24:20;102529.34;;;18.78;58.00
70407;BME280;57821;52.202;0.154;2023-06-04T09:26:47;102521.31;;;18.92;56.22
70407;BME280;57821;52.202;0.154;2023-06-04T09:29:15;102526.47;;;19.01;56.80
70407;BME280;57821;52.202;0.154;2023-06-04T09:31:44;102533.34;;;19.14;54.80
70407;BME280;57821;52.202;0.154;2023-06-04T09:34:11;102527.94;;;19.26;54.56
70407;BME280;57821;52.202;0.154;2023-06-04T09:36:37;102530.38;;;19.41;54.76
70407;BME280;57821;52.202;0.154;2023-06-04T09:39:15;102531.94;;;19.59;54.26
70407;BME280;57821;52.202;0.154;2023-06-04T09:41:42;102529.06;;;19.77;53.49
70407;BME280;57821;52.202;0.154;2023-06-04T09:44:09;102521.72;;;19.99;54.23
70407;BME280;57821;52.202;0.154;2023-06-04T09:46:35;102522.16;;;20.27;53.43
70407;BME280;57821;52.202;0.154;2023-06-04T09:49:05;102538.28;;;20.64;52.88
70407;BME280;57821;52.202;0.154;2023-06-04T09:51:33;102534.00;;;21.04;50.95
70407;BME280;57821;52.202;0.154;2023-06-04T09:54:01;102529.97;;;21.33;50.39
70407;BME280;57821;52.202;0.154;2023-06-04T09:56:29;102536.00;;;21.79;50.16
70407;BME280;57821;52.202;0.154;2023-06-04T09:58:59;102520.91;;;22.24;48.82
70407;BME280;57821;52.202;0.154;2023-06-04T10:01:28;102531.25;;;22.67;47.91
70407;BME280;57821;52.202;0.154;2023-06-04T10:03:57;102529.28;;;23.08;46.22
70407;BME280;57821;52.202;0.154;2023-06-04T10:06:25;102531.81;;;23.43;45.71
70407;BME280;57821;52.202;0.154;2023-06-04T10:08:54;102540.44;;;23.81;44.28
70407;BME280;57821;52.202;0.154;2023-06-04T10:11:26;102529.66;;;24.13;43.16
70407;BME280;57821;52.202;0.154;2023-06-04T10:14:01;102532.88;;;24.50;42.89
70407;BME280;57821;52.202;0.154;2023-06-04T10:16:29;102524.72;;;24.81;41.92
70407;BME280;57821;52.202;0.154;2023-06-04T10:19:00;102519.22;;;25.12;41.87
70407;BME280;57821;52.202;0.154;2023-06-04T10:21:27;102528.69;;;25.43;40.88
70407;BME280;57821;52.202;0.154;2023-06-04T10:23:56;102532.72;;;25.76;41.48
70407;BME280;57821;52.202;0.154;2023-06-04T10:26:23;102531.75;;;26.00;38.97
70407;BME280;57821;52.202;0.154;2023-06-04T10:28:50;102530.47;;;26.10;38.60
70407;BME280;57821;52.202;0.154;2023-06-04T10:31:17;102527.53;;;26.16;37.76
70407;BME280;57821;52.202;0.154;2023-06-04T10:33:44;102531.41;;;26.31;38.83
70407;BME280;57821;52.202;0.154;2023-06-04T10:36:21;102525.84;;;26.57;38.58
70407;BME280;57821;52.202;0.154;2023-06-04T10:38:50;102525.72;;;26.81;38.44
70407;BME280;57821;52.202;0.154;2023-06-04T10:41:21;102525.97;;;26.96;36.72
70407;BME280;57821;52.202;0.154;2023-06-04T10:43:49;102534.19;;;27.11;37.00
70407;BME280;57821;52.202;0.154;2023-06-04T10:46:18;102527.16;;;27.28;35.67
70407;BME280;57821;52.202;0.154;2023-06-04T10:48:49;102527.19;;;27.47;34.58
70407;BME280;57821;52.202;0.154;2023-06-04T10:51:28;102533.38;;;27.48;33.14
70407;BME280;57821;52.202;0.154;2023-06-04T10:53:56;102535.38;;;27.43;32.40
70407;BME280;57821;52.202;0.154;2023-06-04T10:56:27;102530.63;;;27.49;32.78
70407;BME280;57821;52.202;0.154;2023-06-04T10:58:54;102534.69;;;27.58;32.50
70407;BME280;57821;52.202;0.154;2023-06-04T11:01:28;102531.81;;;27.62;32.48
70407;BME280;57821;52.202;0.154;2023-06-04T11:03:55;102532.44;;;27.67;32.37
70407;BME280;57821;52.202;0.154;2023-06-04T11:06:22;102538.06;;;27.80;33.08
70407;BME280;57821;52.202;0.154;2023-06-04T11:08:49;102535.50;;;27.96;32.24
70407;BME280;57821;52.202;0.154;2023-06-04T11:11:16;102527.66;;;28.11;32.40
70407;BME280;57821;52.202;0.154;2023-06-04T11:13:43;102526.66;;;28.31;30.97
70407;BME280;57821;52.202;0.154;2023-06-04T11:16:20;102530.81;;;28.37;30.49
70407;BME280;57821;52.202;0.154;2023-06-04T11:18:54;102520.47;;;28.31;30.90
70407;BME280;57821;52.202;0.154;2023-06-04T11:21:21;102523.47;;;28.25;30.21
70407;BME280;57821;52.202;0.154;2023-06-04T11:23:48;102519.72;;;28.10;30.67
70407;BME280;57821;52.202;0.154;2023-06-04T11:26:16;102522.38;;;28.10;30.78
70407;BME280;57821;52.202;0.154;2023-06-04T11:28:42;102506.97;;;28.16;30.24
70407;BME280;57821;52.202;0.154;2023-06-04T11:31:09;102505.50;;;28.28;30.65
70407;BME280;57821;52.202;0.154;2023-06-04T11:33:43;102503.22;;;28.38;30.94
70407;BME280;57821;52.202;0.154;2023-06-04T11:36:21;102505.50;;;28.45;30.66
70407;BME280;57821;52.202;0.154;2023-06-04T11:41:22;102495.13;;;28.56;30.80
70407;BME280;57821;52.202;0.154;2023-06-04T11:43:49;102500.16;;;28.63;31.37
70407;BME280;57821;52.202;0.154;2023-06-04T11:46:15;102503.31;;;28.71;30.79
70407;BME280;57821;52.202;0.154;2023-06-04T11:48:42;102500.34;;;28.77;30.05
70407;BME280;57821;52.202;0.154;2023-06-04T11:51:09;102499.38;;;28.78;30.07
70407;BME280;57821;52.202;0.154;2023-06-04T11:53:36;102499.63;;;28.73;30.63
70407;BME280;57821;52.202;0.154;2023-06-04T11:56:04;102494.22;;;28.75;30.53
70407;BME280;57821;52.202;0.154;2023-06-04T11:58:31;102497.56;;;28.78;30.74
70407;BME280;57821;52.202;0.154;2023-06-04T12:00:59;102501.72;;;28.84;30.89
70407;BME280;57821;52.202;0.154;2023-06-04T12:03:39;102491.47;;;28.76;29.83
70407;BME280;57821;52.202;0.154;2023-06-04T12:06:16;102489.66;;;28.59;30.31
70407;BME280;57821;52.202;0.154;2023-06-04T12:08:50;102488.69;;;28.43;30.58
70407;BME280;57821;52.202;0.154;2023-06-04T12:11:31;102493.09;;;28.27;30.59
70407;BME280;57821;52.202;0.154;2023-06-04T12:14:04;102473.81;;;28.03;30.23
70407;BME280;57821;52.202;0.154;2023-06-04T12:16:31;102486.50;;;27.81;30.40
70407;BME280;57821;52.202;0.154;2023-06-04T12:19:08;102490.19;;;27.60;30.60
70407;BME280;57821;52.202;0.154;2023-06-04T12:21:36;102492.47;;;27.30;30.82
70407;BME280;57821;52.202;0.154;2023-06-04T12:24:13;102492.00;;;27.02;31.71
70407;BME280;57821;52.202;0.154;2023-06-04T12:26:41;102475.78;;;26.67;31.29
70407;BME280;57821;52.202;0.154;2023-06-04T12:29:11;102480.69;;;26.36;31.43
70407;BME280;57821;52.202;0.154;2023-06-04T12:31:39;102482.13;;;26.01;32.29
70407;BME280;57821;52.202;0.154;2023-06-04T12:34:06;102488.63;;;25.72;33.48
70407;BME280;57821;52.202;0.154;2023-06-04T12:36:33;102480.91;;;25.43;33.46
70407;BME280;57821;52.202;0.154;2023-06-04T12:39:01;102470.38;;;25.16;34.04
70407;BME280;57821;52.202;0.154;2023-06-04T12:41:28;102472.88;;;24.98;34.29
70407;BME280;57821;52.202;0.154;2023-06-04T12:43:55;102471.75;;;24.80;34.64
70407;BME280;57821;52.202;0.154;2023-06-04T12:46:23;102473.09;;;24.67;35.64
70407;BME280;57821;52.202;0.154;2023-06-04T12:48:50;102464.81;;;24.51;35.73
70407;BME280;57821;52.202;0.154;2023-06-04T12:51:18;102463.53;;;24.36;35.38
70407;BME280;57821;52.202;0.154;2023-06-04T12:53:45;102461.38;;;24.23;36.05
70407;BME280;57821;52.202;0.154;2023-06-04T12:56:11;102461.69;;;24.12;36.46
70407;BME280;57821;52.202;0.154;2023-06-04T12:58:38;102466.59;;;23.98;36.67
70407;BME280;57821;52.202;0.154;2023-06-04T13:01:05;102474.72;;;23.92;36.89
70407;BME280;57821;52.202;0.154;2023-06-04T13:03:36;102462.44;;;23.89;36.61